createdAt,value
2023-01-09T00:03:49.448Z,2.17
2023-01-09T00:08:50.776Z,1.98
2023-01-09T00:13:52.083Z,1.70
2023-01-09T00:18:53.655Z,1.73
2023-01-09T00:23:55.236Z,1.73
2023-01-09T00:28:56.554Z,1.10
2023-01-09T00:33:58.017Z,1.05
2023-01-09T00:38:59.331Z,1.30
2023-01-09T00:44:09.634Z,1.00
2023-01-09T00:49:12.194Z,0.70
2023-01-09T00:54:14.973Z,0.90
2023-01-09T00:59:16.327Z,1.30
2023-01-09T01:04:36.279Z,1.10
2023-01-09T01:09:37.684Z,1.02
2023-01-09T01:14:38.953Z,1.10
2023-01-09T01:19:40.611Z,0.40
2023-01-09T01:24:41.902Z,0.63
2023-01-09T01:29:43.221Z,0.50
2023-01-09T01:34:46.354Z,0.32
2023-01-09T01:39:49.006Z,0.30
2023-01-09T01:44:56.518Z,0.30
2023-01-09T01:49:58.263Z,0.40
2023-01-09T01:54:59.736Z,0.40
2023-01-09T02:00:03.097Z,0.30
2023-01-09T02:05:04.629Z,0.40
2023-01-09T02:10:06.133Z,0.30
2023-01-09T02:15:09.593Z,0.20
2023-01-09T02:20:26.356Z,0.80
2023-01-09T02:26:00.260Z,0.30
2023-01-09T02:31:13.569Z,0.30
2023-01-09T02:36:37.668Z,0.30
2023-01-09T02:41:48.116Z,0.30
2023-01-09T02:47:00.042Z,0.40
2023-01-09T02:52:19.780Z,0.40
2023-01-09T02:57:53.301Z,0.50
2023-01-09T03:03:17.346Z,0.40
2023-01-09T03:08:20.662Z,0.30
2023-01-09T03:13:23.872Z,0.40
2023-01-09T03:18:27.023Z,0.40
2023-01-09T03:23:28.309Z,0.27
2023-01-09T03:28:29.914Z,0.20
2023-01-09T03:33:31.234Z,0.30
2023-01-09T03:38:32.670Z,0.33
2023-01-09T03:43:34.086Z,0.30
2023-01-09T03:48:35.371Z,0.20
2023-01-09T03:53:36.689Z,0.30
2023-01-09T03:58:37.974Z,0.30
2023-01-09T04:03:39.823Z,0.30
2023-01-09T04:08:41.118Z,0.30
2023-01-09T04:13:42.498Z,0.40
2023-01-09T04:18:43.787Z,0.30
2023-01-09T04:23:45.418Z,0.20
2023-01-09T04:28:47.390Z,0.37
2023-01-09T04:33:48.681Z,0.30
2023-01-09T04:38:49.933Z,0.40
2023-01-09T04:43:51.160Z,0.30
2023-01-09T04:48:52.438Z,0.30
2023-01-09T04:53:53.753Z,0.40
2023-01-09T04:58:55.032Z,0.50
2023-01-09T05:03:56.441Z,0.40
2023-01-09T05:08:57.903Z,0.50
2023-01-09T05:13:59.132Z,0.38
2023-01-09T05:19:00.557Z,0.40
2023-01-09T05:24:01.962Z,0.55
2023-01-09T05:29:03.267Z,0.47
2023-01-09T05:34:04.547Z,0.32
2023-01-09T05:39:06.451Z,0.98
2023-01-09T05:44:07.716Z,0.30
2023-01-09T05:49:09.008Z,0.30
2023-01-09T05:54:10.396Z,0.40
2023-01-09T05:59:11.640Z,0.47
2023-01-09T06:04:12.991Z,0.40
2023-01-09T06:09:14.215Z,0.70
2023-01-09T06:14:15.484Z,0.47
2023-01-09T06:19:16.835Z,0.47
2023-01-09T06:24:18.203Z,0.50
2023-01-09T06:29:19.540Z,1.05
2023-01-09T06:34:21.051Z,0.57
2023-01-09T06:39:22.355Z,0.50
2023-01-09T06:44:23.682Z,1.00
2023-01-09T06:49:24.967Z,0.70
2023-01-09T06:54:28.624Z,1.40
2023-01-09T06:59:30.005Z,2.67
2023-01-09T07:04:31.313Z,1.25
2023-01-09T07:09:32.557Z,0.60
2023-01-09T07:14:34.113Z,0.70
2023-01-09T07:19:35.431Z,0.80
2023-01-09T07:24:36.709Z,0.50
2023-01-09T07:29:38.025Z,0.80
2023-01-09T07:34:39.302Z,0.70
2023-01-09T07:39:40.603Z,0.98
2023-01-09T07:44:41.895Z,0.70
2023-01-09T07:49:43.205Z,2.00
2023-01-09T07:54:44.445Z,0.60
2023-01-09T07:59:45.716Z,0.90
2023-01-09T08:04:47.060Z,0.82
2023-01-09T08:09:48.307Z,0.77
2023-01-09T08:14:51.281Z,0.67
2023-01-09T08:19:52.526Z,0.70
2023-01-09T08:24:53.800Z,0.67
2023-01-09T08:29:55.058Z,0.60
2023-01-09T08:34:56.372Z,0.60
2023-01-09T08:39:57.704Z,0.60
2023-01-09T08:45:17.879Z,0.60
2023-01-09T08:50:19.390Z,0.80
2023-01-09T08:55:20.663Z,0.85
2023-01-09T09:00:23.164Z,0.77
2023-01-09T09:05:25.177Z,0.80
2023-01-09T09:10:27.752Z,0.52
2023-01-09T09:15:29.108Z,0.40
2023-01-09T09:20:31.786Z,1.23
2023-01-09T09:25:33.063Z,0.73
2023-01-09T09:30:34.760Z,0.47
2023-01-09T09:35:36.529Z,0.65
2023-01-09T09:40:56.856Z,0.70
2023-01-09T09:46:03.423Z,0.73
2023-01-09T09:51:04.753Z,0.50
2023-01-09T09:56:08.647Z,0.50
2023-01-09T10:01:12.813Z,0.70
2023-01-09T10:06:17.124Z,0.40
2023-01-09T10:11:22.786Z,1.00
2023-01-09T10:16:32.826Z,0.50
2023-01-09T10:21:37.175Z,0.70
2023-01-09T10:26:47.699Z,0.50
2023-01-09T10:32:15.308Z,0.60
2023-01-09T10:37:16.577Z,0.80
2023-01-09T10:42:24.790Z,1.20
2023-01-09T10:47:28.985Z,0.70
2023-01-09T10:52:33.695Z,0.68
2023-01-09T10:57:40.251Z,0.63
2023-01-09T11:02:41.887Z,0.70
2023-01-09T11:07:44.672Z,0.60
2023-01-09T11:12:45.997Z,0.70
2023-01-09T11:17:47.664Z,1.20
2023-01-09T11:22:49.864Z,0.70
2023-01-09T11:28:03.192Z,0.70
2023-01-09T11:33:43.762Z,0.95
2023-01-09T11:38:49.524Z,0.73
2023-01-09T11:43:52.133Z,0.90
2023-01-09T11:48:55.401Z,1.00
2023-01-09T11:53:59.776Z,0.95
2023-01-09T11:59:01.082Z,0.70
2023-01-09T12:04:21.156Z,0.90
2023-01-09T12:09:29.262Z,1.33
2023-01-09T12:14:43.305Z,1.00
2023-01-09T12:19:59.647Z,1.48
2023-01-09T12:25:14.429Z,0.60
2023-01-09T12:30:34.371Z,0.80
2023-01-09T12:35:38.439Z,0.82
2023-01-09T12:40:39.703Z,1.63
2023-01-09T12:45:41.325Z,0.70
2023-01-09T12:50:59.437Z,0.80
2023-01-09T12:56:06.115Z,1.63
2023-01-09T13:01:10.859Z,0.90
2023-01-09T13:06:15.072Z,0.60
2023-01-09T13:11:21.343Z,0.50
2023-01-09T13:16:28.524Z,0.82
2023-01-09T13:21:30.478Z,0.83
2023-01-09T13:26:42.487Z,2.08
2023-01-09T13:32:08.985Z,1.03
2023-01-09T13:37:23.606Z,0.60
2023-01-09T13:42:45.934Z,1.08
2023-01-09T13:47:47.380Z,0.70
2023-01-09T13:52:49.197Z,0.80
2023-01-09T13:58:05.954Z,1.20
2023-01-09T14:03:13.318Z,1.25
2023-01-09T14:08:19.260Z,1.05
2023-01-09T14:13:28.676Z,0.97
2023-01-09T14:18:32.006Z,1.30
2023-01-09T14:23:51.136Z,0.97
2023-01-09T14:29:13.703Z,1.30
2023-01-09T14:34:31.167Z,1.30
2023-01-09T14:39:33.259Z,2.30
2023-01-09T14:44:45.434Z,0.90
2023-01-09T14:50:04.066Z,0.70
2023-01-09T14:55:25.927Z,0.50
2023-01-09T15:00:27.227Z,1.05
2023-01-09T15:05:28.770Z,0.53
2023-01-09T15:10:33.760Z,2.63
2023-01-09T15:15:35.386Z,1.97
2023-01-09T15:20:36.748Z,1.70
2023-01-09T15:25:40.069Z,1.50
2023-01-09T15:30:43.346Z,2.10
2023-01-09T15:35:45.485Z,1.40
2023-01-09T15:41:00.456Z,1.20
2023-01-09T15:46:01.856Z,1.30
2023-01-09T15:51:05.920Z,1.20
2023-01-09T15:56:19.640Z,1.13
2023-01-09T16:01:34.277Z,2.00
2023-01-09T16:06:37.215Z,1.17
2023-01-09T16:11:38.549Z,3.05
2023-01-09T16:16:40.132Z,1.88
2023-01-09T16:21:41.557Z,1.40
2023-01-09T16:26:42.821Z,1.20
2023-01-09T16:31:44.206Z,1.43
2023-01-09T16:36:45.580Z,1.42
2023-01-09T16:42:05.650Z,1.50
2023-01-09T16:47:10.224Z,1.40
2023-01-09T16:52:16.924Z,1.40
2023-01-09T16:57:18.847Z,1.00
2023-01-09T17:02:20.478Z,0.95
2023-01-09T17:07:22.862Z,1.42
2023-01-09T17:12:24.832Z,1.10
2023-01-09T17:17:26.153Z,1.00
2023-01-09T17:22:27.490Z,0.87
2023-01-09T17:27:52.768Z,0.70
2023-01-09T17:32:54.122Z,0.90
2023-01-09T17:37:55.465Z,1.17
2023-01-09T17:42:56.761Z,0.75
2023-01-09T17:47:58.029Z,1.00
2023-01-09T17:52:59.369Z,1.08
2023-01-09T17:58:00.651Z,0.70
2023-01-09T18:03:02.668Z,1.03
2023-01-09T18:08:05.707Z,1.10
2023-01-09T18:13:08.779Z,1.07
2023-01-09T18:18:10.193Z,0.90
2023-01-09T18:23:11.821Z,0.73
2023-01-09T18:28:16.747Z,0.80
2023-01-09T18:33:18.453Z,1.02
2023-01-09T18:38:19.758Z,0.80
2023-01-09T18:43:21.441Z,1.27
2023-01-09T18:48:23.007Z,1.30
2023-01-09T18:53:24.302Z,1.10
2023-01-09T18:58:25.548Z,1.50
2023-01-09T19:03:27.290Z,1.20
2023-01-09T19:08:29.557Z,1.35
2023-01-09T19:13:32.279Z,1.58
2023-01-09T19:18:34.993Z,1.30
2023-01-09T19:23:36.260Z,1.30
2023-01-09T19:28:38.829Z,1.50
2023-01-09T19:33:40.110Z,1.60
2023-01-09T19:38:41.533Z,1.35
2023-01-09T19:43:43.248Z,2.27
2023-01-09T19:48:44.790Z,1.90
2023-01-09T19:53:50.607Z,1.87
2023-01-09T19:58:55.662Z,1.80
2023-01-09T20:03:57.686Z,1.83
2023-01-09T20:09:00.003Z,1.70
2023-01-09T20:14:01.644Z,2.00
2023-01-09T20:19:07.594Z,1.70
2023-01-09T20:24:10.525Z,1.55
2023-01-09T20:29:12.781Z,1.60
2023-01-09T20:34:14.716Z,1.30
2023-01-09T20:39:16.044Z,1.58
2023-01-09T20:44:17.328Z,1.53
2023-01-09T20:49:19.100Z,1.25
2023-01-09T20:54:23.679Z,1.50
2023-01-09T20:59:24.951Z,1.20
2023-01-09T21:04:26.360Z,1.20
2023-01-09T21:09:29.120Z,1.50
2023-01-09T21:14:31.665Z,1.10
2023-01-09T21:19:32.893Z,1.77
2023-01-09T21:24:34.171Z,1.20
2023-01-09T21:29:35.497Z,1.10
2023-01-09T21:34:36.861Z,1.33
2023-01-09T21:39:38.095Z,1.42
2023-01-09T21:44:58.161Z,1.35
2023-01-09T21:49:59.438Z,1.30
2023-01-09T21:55:00.745Z,1.52
2023-01-09T22:00:02.025Z,1.40
2023-01-09T22:05:03.422Z,1.20
2023-01-09T22:10:05.106Z,1.02
2023-01-09T22:15:06.549Z,0.90
2023-01-09T22:20:09.068Z,0.85
2023-01-09T22:25:10.894Z,0.93
2023-01-09T22:30:12.317Z,0.70
2023-01-09T22:35:13.603Z,0.70
2023-01-09T22:40:14.912Z,0.77
2023-01-09T22:45:16.185Z,1.20
2023-01-09T22:50:17.473Z,1.20
2023-01-09T22:55:18.721Z,0.93
2023-01-09T23:00:20.019Z,0.50
2023-01-09T23:05:21.298Z,0.53
2023-01-09T23:10:22.599Z,0.60
2023-01-09T23:15:23.835Z,0.70
2023-01-09T23:20:25.258Z,0.68
2023-01-09T23:25:26.573Z,0.77
2023-01-09T23:30:27.811Z,0.90
2023-01-09T23:35:29.033Z,0.95
2023-01-09T23:40:30.254Z,1.00
2023-01-09T23:45:33.145Z,1.20
2023-01-09T23:50:34.576Z,1.02
2023-01-09T23:55:37.072Z,1.00
